createdAt,value
2022-09-25T00:00:13.665Z,11.80
2022-09-25T00:01:14.063Z,13.00
2022-09-25T00:02:14.415Z,11.60
2022-09-25T00:03:14.644Z,13.40
2022-09-25T00:04:15.006Z,12.70
2022-09-25T00:05:15.362Z,13.00
2022-09-25T00:06:15.712Z,12.30
2022-09-25T00:07:16.080Z,11.60
2022-09-25T00:08:16.439Z,11.40
2022-09-25T00:09:16.810Z,12.60
2022-09-25T00:10:17.161Z,12.10
2022-09-25T00:11:17.510Z,11.00
2022-09-25T00:12:17.866Z,10.40
2022-09-25T00:13:18.210Z,12.40
2022-09-25T00:14:18.580Z,9.70
2022-09-25T00:15:18.926Z,11.60
2022-09-25T00:16:19.396Z,11.10
2022-09-25T00:17:19.683Z,11.60
2022-09-25T00:18:20.027Z,13.20
2022-09-25T00:19:20.394Z,11.00
2022-09-25T00:20:20.743Z,11.20
2022-09-25T00:21:21.079Z,10.10
2022-09-25T00:22:21.426Z,12.30
2022-09-25T00:23:21.780Z,11.50
2022-09-25T00:24:22.192Z,11.40
2022-09-25T00:25:22.546Z,10.10
2022-09-25T00:26:22.901Z,11.80
2022-09-25T00:27:23.238Z,10.80
2022-09-25T00:28:23.582Z,8.60
2022-09-25T00:29:23.945Z,10.50
2022-09-25T00:30:24.308Z,10.10
2022-09-25T00:31:24.802Z,11.30
2022-09-25T00:32:25.066Z,12.20
2022-09-25T00:33:25.424Z,8.90
2022-09-25T00:34:25.791Z,9.80
2022-09-25T00:35:26.126Z,9.90
2022-09-25T00:36:26.500Z,8.80
2022-09-25T00:37:26.831Z,13.20
2022-09-25T00:38:27.187Z,9.60
2022-09-25T00:39:27.550Z,10.30
2022-09-25T00:40:27.972Z,10.50
2022-09-25T00:41:28.325Z,9.20
2022-09-25T00:42:28.674Z,10.00
2022-09-25T00:43:29.042Z,11.10
2022-09-25T00:44:29.421Z,10.40
2022-09-25T00:45:29.774Z,9.90
2022-09-25T00:46:30.197Z,11.30
2022-09-25T00:47:30.434Z,10.70
2022-09-25T00:48:30.787Z,14.00
2022-09-25T00:49:31.153Z,12.80
2022-09-25T00:50:31.504Z,9.20
2022-09-25T00:51:31.872Z,11.10
2022-09-25T00:52:32.221Z,10.30
2022-09-25T00:53:32.578Z,14.10
2022-09-25T00:54:32.953Z,9.20
2022-09-25T00:55:33.293Z,9.40
2022-09-25T00:56:33.657Z,10.50
2022-09-25T00:57:34.017Z,13.40
2022-09-25T00:58:34.377Z,10.20
2022-09-25T00:59:34.757Z,9.20
2022-09-25T01:00:35.115Z,9.70
2022-09-25T01:01:35.535Z,10.70
2022-09-25T01:02:35.943Z,9.00
2022-09-25T01:03:36.303Z,9.80
2022-09-25T01:04:36.687Z,8.00
2022-09-25T01:05:36.986Z,8.30
2022-09-25T01:06:37.363Z,10.20
2022-09-25T01:07:37.712Z,10.60
2022-09-25T01:08:38.091Z,8.90
2022-09-25T01:09:38.465Z,9.40
2022-09-25T01:10:38.820Z,10.30
2022-09-25T01:11:39.182Z,8.30
2022-09-25T01:12:39.531Z,10.50
2022-09-25T01:13:39.885Z,8.50
2022-09-25T01:14:40.276Z,9.50
2022-09-25T01:15:40.612Z,8.40
2022-09-25T01:16:41.047Z,7.50
2022-09-25T01:17:41.309Z,7.60
2022-09-25T01:18:41.662Z,8.60
2022-09-25T01:19:45.877Z,8.80
2022-09-25T01:20:42.449Z,9.50
2022-09-25T01:21:42.797Z,7.80
2022-09-25T01:22:43.158Z,10.00
2022-09-25T01:23:43.510Z,8.10
2022-09-25T01:24:43.895Z,8.40
2022-09-25T01:25:44.240Z,9.90
2022-09-25T01:26:44.588Z,9.70
2022-09-25T01:27:44.937Z,7.60
2022-09-25T01:28:45.292Z,7.20
2022-09-25T01:29:45.655Z,8.00
2022-09-25T01:30:46.060Z,6.80
2022-09-25T01:31:46.424Z,8.20
2022-09-25T01:32:46.781Z,8.50
2022-09-25T01:33:47.136Z,7.40
2022-09-25T01:34:47.507Z,7.70
2022-09-25T01:35:47.883Z,9.40
2022-09-25T01:36:48.225Z,9.50
2022-09-25T01:37:48.568Z,7.80
2022-09-25T01:38:48.926Z,7.00
2022-09-25T01:39:49.316Z,8.40
2022-09-25T01:40:49.769Z,7.80
2022-09-25T01:41:50.049Z,7.50
2022-09-25T01:42:50.370Z,7.30
2022-09-25T01:43:50.742Z,8.60
2022-09-25T01:44:51.133Z,7.80
2022-09-25T01:45:51.570Z,7.20
2022-09-25T01:46:51.914Z,7.10
2022-09-25T01:47:52.265Z,7.10
2022-09-25T01:48:52.632Z,7.60
2022-09-25T01:49:53.002Z,6.10
2022-09-25T01:50:53.355Z,8.20
2022-09-25T01:51:55.736Z,7.60
2022-09-25T01:52:54.017Z,8.70
2022-09-25T01:53:54.361Z,6.20
2022-09-25T01:54:54.734Z,6.80
2022-09-25T01:55:55.084Z,8.80
2022-09-25T01:56:55.451Z,7.60
2022-09-25T01:57:55.805Z,7.60
2022-09-25T01:58:56.162Z,8.60
2022-09-25T01:59:56.527Z,7.70
2022-09-25T02:00:56.976Z,7.10
2022-09-25T02:01:57.203Z,8.30
2022-09-25T02:02:57.690Z,9.20
2022-09-25T02:03:57.981Z,10.90
2022-09-25T02:04:58.355Z,10.00
2022-09-25T02:05:58.712Z,10.10
2022-09-25T02:06:59.069Z,10.50
2022-09-25T02:07:59.418Z,7.60
2022-09-25T02:08:59.761Z,8.50
2022-09-25T02:10:00.173Z,8.20
2022-09-25T02:11:00.491Z,9.80
2022-09-25T02:12:00.838Z,7.30
2022-09-25T02:13:01.194Z,6.70
2022-09-25T02:14:01.551Z,8.70
2022-09-25T02:15:01.923Z,12.50
2022-09-25T02:16:02.277Z,8.70
2022-09-25T02:17:02.687Z,11.10
2022-09-25T02:18:03.032Z,9.40
2022-09-25T02:19:03.396Z,9.60
2022-09-25T02:20:03.785Z,10.10
2022-09-25T02:21:04.139Z,7.60
2022-09-25T02:22:04.527Z,9.00
2022-09-25T02:23:04.887Z,8.80
2022-09-25T02:24:05.244Z,11.50
2022-09-25T02:25:05.631Z,10.40
2022-09-25T02:26:05.984Z,9.10
2022-09-25T02:27:06.341Z,7.50
2022-09-25T02:28:06.692Z,7.50
2022-09-25T02:29:07.047Z,7.50
2022-09-25T02:30:07.422Z,8.10
2022-09-25T02:31:07.892Z,9.10
2022-09-25T02:32:08.151Z,9.20
2022-09-25T02:33:08.511Z,7.40
2022-09-25T02:34:14.477Z,10.40
2022-09-25T02:35:10.295Z,7.70
2022-09-25T02:36:09.660Z,12.30
2022-09-25T02:37:10.016Z,7.60
2022-09-25T02:38:10.384Z,8.30
2022-09-25T02:39:10.725Z,9.90
2022-09-25T02:40:11.177Z,8.70
2022-09-25T02:41:11.427Z,9.60
2022-09-25T02:42:11.776Z,10.10
2022-09-25T02:43:12.136Z,9.00
2022-09-25T02:44:12.520Z,10.50
2022-09-25T02:45:12.898Z,8.30
2022-09-25T02:46:13.304Z,8.30
2022-09-25T02:47:13.649Z,10.20
2022-09-25T02:48:13.991Z,7.70
2022-09-25T02:49:14.344Z,9.10
2022-09-25T02:50:14.713Z,8.80
2022-09-25T02:51:15.065Z,10.90
2022-09-25T02:52:15.434Z,9.30
2022-09-25T02:53:15.773Z,10.30
2022-09-25T02:54:16.135Z,9.50
2022-09-25T02:55:16.494Z,10.40
2022-09-25T02:56:16.846Z,7.00
2022-09-25T02:57:17.193Z,10.40
2022-09-25T02:58:17.573Z,9.20
2022-09-25T02:59:17.916Z,10.20
2022-09-25T03:00:18.272Z,8.50
2022-09-25T03:01:18.681Z,10.40
2022-09-25T03:02:18.998Z,8.90
2022-09-25T03:03:19.322Z,9.50
2022-09-25T03:04:19.670Z,11.50
2022-09-25T03:05:20.032Z,8.70
2022-09-25T03:06:20.398Z,9.00
2022-09-25T03:07:20.757Z,10.00
2022-09-25T03:08:21.112Z,10.60
2022-09-25T03:09:21.460Z,9.80
2022-09-25T03:10:21.842Z,9.70
2022-09-25T03:11:22.190Z,8.40
2022-09-25T03:12:22.541Z,8.70
2022-09-25T03:13:22.889Z,10.20
2022-09-25T03:14:23.270Z,8.90
2022-09-25T03:15:23.637Z,9.70
2022-09-25T03:16:24.048Z,8.10
2022-09-25T03:17:24.354Z,10.90
2022-09-25T03:18:24.730Z,9.30
2022-09-25T03:19:25.093Z,7.60
2022-09-25T03:20:25.732Z,10.60
2022-09-25T03:21:25.859Z,11.80
2022-09-25T03:22:26.205Z,9.40
2022-09-25T03:23:26.563Z,8.40
2022-09-25T03:24:26.925Z,11.70
2022-09-25T03:25:27.315Z,11.20
2022-09-25T03:26:27.660Z,10.80
2022-09-25T03:27:28.056Z,8.70
2022-09-25T03:28:28.429Z,11.60
2022-09-25T03:29:28.843Z,10.20
2022-09-25T03:30:29.273Z,9.10
2022-09-25T03:31:29.589Z,10.70
2022-09-25T03:32:29.938Z,10.60
2022-09-25T03:33:30.300Z,9.00
2022-09-25T03:34:30.659Z,10.00
2022-09-25T03:35:31.035Z,10.80
2022-09-25T03:36:31.384Z,10.50
2022-09-25T03:37:31.741Z,9.00
2022-09-25T03:38:32.096Z,10.40
2022-09-25T03:39:32.456Z,11.40
2022-09-25T03:40:32.923Z,10.00
2022-09-25T03:41:33.195Z,9.40
2022-09-25T03:42:33.566Z,10.60
2022-09-25T03:43:33.935Z,11.30
2022-09-25T03:44:34.303Z,10.70
2022-09-25T03:45:34.664Z,7.80
2022-09-25T03:46:35.075Z,11.70
2022-09-25T03:47:35.356Z,11.00
2022-09-25T03:48:35.716Z,10.30
2022-09-25T03:49:36.077Z,8.70
2022-09-25T03:50:36.454Z,13.80
2022-09-25T03:51:36.823Z,10.10
2022-09-25T03:52:37.185Z,10.10
2022-09-25T03:53:37.540Z,11.60
2022-09-25T03:54:37.903Z,9.70
2022-09-25T03:55:38.280Z,8.50
2022-09-25T03:56:38.652Z,9.60
2022-09-25T03:57:39.014Z,10.90
2022-09-25T03:58:39.369Z,10.40
2022-09-25T03:59:39.723Z,10.50
2022-09-25T04:00:40.096Z,10.10
2022-09-25T04:01:40.532Z,10.30
2022-09-25T04:02:40.890Z,9.80
2022-09-25T04:03:41.234Z,9.60
2022-09-25T04:04:41.602Z,11.50
2022-09-25T04:05:42.002Z,11.40
2022-09-25T04:06:42.366Z,8.40
2022-09-25T04:07:42.732Z,10.80
2022-09-25T04:08:43.071Z,11.10
2022-09-25T04:09:43.431Z,10.60
2022-09-25T04:10:43.805Z,11.70
2022-09-25T04:11:44.166Z,11.20
2022-09-25T04:12:44.531Z,9.80
2022-09-25T04:13:44.932Z,9.80
2022-09-25T04:14:45.266Z,11.40
2022-09-25T04:15:45.639Z,10.20
2022-09-25T04:16:46.069Z,11.10
2022-09-25T04:17:46.421Z,11.10
2022-09-25T04:18:46.798Z,8.60
2022-09-25T04:19:47.152Z,11.60
2022-09-25T04:20:47.541Z,12.40
2022-09-25T04:21:47.894Z,12.80
2022-09-25T04:22:48.250Z,9.70
2022-09-25T04:23:48.616Z,10.90
2022-09-25T04:24:48.983Z,11.00
2022-09-25T04:25:49.350Z,11.70
2022-09-25T04:26:49.739Z,10.80
2022-09-25T04:27:50.089Z,13.10
2022-09-25T04:28:50.441Z,8.80
2022-09-25T04:29:50.799Z,11.90
2022-09-25T04:30:51.177Z,13.20
2022-09-25T04:31:51.565Z,10.50
2022-09-25T04:32:51.920Z,11.10
2022-09-25T04:33:52.273Z,9.20
2022-09-25T04:34:52.637Z,11.70
2022-09-25T04:35:53.026Z,11.00
2022-09-25T04:36:53.385Z,10.90
2022-09-25T04:37:53.755Z,10.20
2022-09-25T04:38:54.096Z,10.40
2022-09-25T04:39:54.458Z,12.10
2022-09-25T04:40:54.911Z,11.50
2022-09-25T04:41:55.146Z,11.20
2022-09-25T04:42:55.506Z,11.40
2022-09-25T04:43:55.862Z,12.90
2022-09-25T04:44:56.229Z,14.00
2022-09-25T04:45:56.671Z,11.10
2022-09-25T04:46:56.907Z,10.30
2022-09-25T04:47:57.262Z,14.90
2022-09-25T04:48:57.624Z,11.40
2022-09-25T04:49:58.003Z,12.80
2022-09-25T04:50:58.385Z,13.20
2022-09-25T04:51:58.754Z,10.50
2022-09-25T04:52:59.113Z,13.90
2022-09-25T04:53:59.465Z,10.70
2022-09-25T04:54:59.823Z,10.60
2022-09-25T04:56:00.192Z,11.40
2022-09-25T04:57:00.542Z,13.50
2022-09-25T04:58:00.895Z,11.20
2022-09-25T04:59:01.243Z,12.10
2022-09-25T05:00:01.591Z,12.40
2022-09-25T05:01:02.030Z,14.40
2022-09-25T05:02:02.431Z,10.90
2022-09-25T05:03:02.798Z,13.30
2022-09-25T05:04:08.326Z,11.30
2022-09-25T05:05:04.483Z,12.10
2022-09-25T05:06:03.830Z,14.00
2022-09-25T05:07:04.187Z,11.10
2022-09-25T05:08:04.541Z,12.80
2022-09-25T05:09:04.897Z,13.50
2022-09-25T05:10:05.242Z,12.70
2022-09-25T05:11:05.618Z,11.00
2022-09-25T05:12:05.960Z,11.60
2022-09-25T05:13:06.320Z,10.70
2022-09-25T05:14:06.715Z,11.50
2022-09-25T05:15:07.087Z,11.50
2022-09-25T05:16:07.515Z,12.20
2022-09-25T05:17:07.848Z,15.30
2022-09-25T05:18:08.200Z,9.70
2022-09-25T05:19:08.550Z,10.80
2022-09-25T05:20:08.900Z,14.30
2022-09-25T05:21:09.270Z,13.10
2022-09-25T05:22:09.618Z,14.30
2022-09-25T05:23:10.026Z,11.40
2022-09-25T05:24:10.410Z,11.50
2022-09-25T05:25:10.789Z,11.50
2022-09-25T05:26:11.268Z,11.00
2022-09-25T05:27:11.497Z,11.50
2022-09-25T05:28:11.847Z,15.30
2022-09-25T05:29:12.212Z,13.90
2022-09-25T05:30:12.568Z,11.10
2022-09-25T05:31:12.960Z,11.40
2022-09-25T05:32:13.288Z,12.50
2022-09-25T05:33:13.653Z,14.00
2022-09-25T05:34:14.004Z,13.10
2022-09-25T05:35:14.354Z,16.70
2022-09-25T05:36:14.720Z,12.60
2022-09-25T05:37:15.086Z,14.40
2022-09-25T05:38:15.440Z,19.80
2022-09-25T05:39:15.804Z,12.10
2022-09-25T05:40:16.199Z,12.50
2022-09-25T05:41:16.574Z,13.20
2022-09-25T05:42:16.927Z,11.00
2022-09-25T05:43:17.286Z,16.50
2022-09-25T05:44:17.636Z,13.10
2022-09-25T05:45:17.986Z,11.70
2022-09-25T05:46:18.505Z,13.80
2022-09-25T05:47:18.758Z,16.70
2022-09-25T05:48:19.104Z,13.70
2022-09-25T05:49:19.454Z,13.00
2022-09-25T05:50:19.794Z,14.20
2022-09-25T05:51:20.164Z,14.80
2022-09-25T05:52:20.515Z,15.60
2022-09-25T05:53:27.899Z,14.80
2022-09-25T05:54:21.198Z,15.90
2022-09-25T05:55:21.537Z,16.00
2022-09-25T05:56:21.901Z,12.90
2022-09-25T05:57:22.257Z,12.90
2022-09-25T05:58:22.583Z,14.20
2022-09-25T05:59:22.931Z,12.50
2022-09-25T06:00:23.268Z,14.10
2022-09-25T06:01:23.669Z,12.50
2022-09-25T06:02:24.149Z,15.40
2022-09-25T06:03:24.386Z,14.50
2022-09-25T06:04:24.631Z,12.30
2022-09-25T06:05:24.989Z,11.90
2022-09-25T06:06:27.600Z,15.50
2022-09-25T06:07:25.738Z,13.60
2022-09-25T06:08:26.086Z,14.90
2022-09-25T06:09:26.428Z,12.50
2022-09-25T06:10:26.837Z,14.30
2022-09-25T06:11:27.102Z,14.60
2022-09-25T06:12:27.430Z,20.80
2022-09-25T06:13:27.768Z,15.40
2022-09-25T06:14:28.107Z,16.30
2022-09-25T06:15:28.479Z,14.30
2022-09-25T06:16:28.851Z,14.70
2022-09-25T06:17:29.179Z,13.30
2022-09-25T06:18:29.528Z,14.40
2022-09-25T06:19:29.850Z,15.20
2022-09-25T06:20:30.189Z,14.40
2022-09-25T06:21:30.560Z,16.30
2022-09-25T06:22:30.897Z,13.80
2022-09-25T06:23:31.240Z,13.60
2022-09-25T06:24:31.579Z,15.40
2022-09-25T06:25:31.948Z,14.10
2022-09-25T06:26:32.289Z,16.70
2022-09-25T06:27:32.614Z,14.60
2022-09-25T06:28:32.946Z,15.20
2022-09-25T06:29:33.274Z,14.90
2022-09-25T06:30:33.618Z,13.80
2022-09-25T06:31:34.066Z,13.80
2022-09-25T06:32:34.325Z,13.10
2022-09-25T06:33:34.657Z,13.40
2022-09-25T06:34:34.996Z,16.50
2022-09-25T06:35:35.329Z,14.00
2022-09-25T06:36:35.672Z,13.10
2022-09-25T06:37:36.003Z,13.10
2022-09-25T06:38:36.326Z,17.40
2022-09-25T06:39:36.655Z,13.80
2022-09-25T06:40:37.016Z,14.30
2022-09-25T06:41:37.349Z,14.80
2022-09-25T06:42:37.673Z,15.20
2022-09-25T06:43:38.092Z,12.80
2022-09-25T06:44:38.289Z,16.10
2022-09-25T06:45:38.625Z,15.00
2022-09-25T06:46:39.035Z,13.00
2022-09-25T06:47:39.283Z,17.60
2022-09-25T06:48:39.614Z,13.70
2022-09-25T06:49:39.934Z,13.70
2022-09-25T06:50:40.273Z,13.30
2022-09-25T06:51:40.609Z,14.30
2022-09-25T06:52:40.940Z,13.40
2022-09-25T06:53:41.272Z,12.90
2022-09-25T06:54:44.156Z,14.00
2022-09-25T06:55:41.982Z,15.70
2022-09-25T06:56:42.319Z,15.90
2022-09-25T06:57:42.644Z,15.00
2022-09-25T06:58:42.974Z,14.80
2022-09-25T06:59:43.316Z,13.30
2022-09-25T07:00:43.646Z,16.80
2022-09-25T07:01:44.029Z,14.10
2022-09-25T07:02:44.385Z,15.50
2022-09-25T07:03:44.722Z,18.60
2022-09-25T07:04:45.038Z,18.90
2022-09-25T07:05:45.382Z,13.40
2022-09-25T07:06:45.732Z,16.60
2022-09-25T07:07:46.052Z,12.90
2022-09-25T07:08:46.377Z,16.80
2022-09-25T07:09:46.707Z,15.00
2022-09-25T07:10:47.036Z,14.80
2022-09-25T07:11:47.362Z,14.50
2022-09-25T07:12:47.691Z,15.60
2022-09-25T07:13:48.022Z,16.70
2022-09-25T07:14:48.325Z,16.10
2022-09-25T07:15:48.729Z,16.70
2022-09-25T07:16:49.030Z,14.40
2022-09-25T07:17:49.352Z,14.50
2022-09-25T07:18:49.786Z,15.10
2022-09-25T07:19:50.006Z,15.40
2022-09-25T07:20:50.328Z,16.00
2022-09-25T07:21:50.659Z,15.20
2022-09-25T07:22:50.983Z,14.40
2022-09-25T07:23:51.309Z,15.20
2022-09-25T07:24:51.646Z,16.80
2022-09-25T07:25:51.950Z,14.60
2022-09-25T07:26:52.272Z,15.80
2022-09-25T07:27:52.611Z,16.20
2022-09-25T07:28:52.942Z,15.40
2022-09-25T07:29:53.269Z,15.60
2022-09-25T07:30:53.641Z,15.80
2022-09-25T07:31:54.003Z,14.40
2022-09-25T07:32:59.821Z,16.40
2022-09-25T07:33:55.749Z,14.10
2022-09-25T07:34:55.051Z,15.50
2022-09-25T07:35:55.712Z,13.50
2022-09-25T07:36:55.777Z,13.90
2022-09-25T07:37:56.108Z,15.10
2022-09-25T07:38:56.402Z,14.90
2022-09-25T07:39:56.744Z,13.80
2022-09-25T07:40:57.091Z,13.40
2022-09-25T07:41:57.378Z,15.10
2022-09-25T07:42:57.685Z,14.20
2022-09-25T07:44:59.257Z,12.80
2022-09-25T07:45:58.619Z,15.80
2022-09-25T07:46:58.852Z,12.50
2022-09-25T07:47:59.171Z,16.70
2022-09-25T07:48:59.480Z,15.30
2022-09-25T07:49:59.806Z,13.80
2022-09-25T07:51:00.116Z,14.80
2022-09-25T07:52:00.438Z,12.70
2022-09-25T07:53:00.761Z,12.80
2022-09-25T07:54:01.083Z,16.60
2022-09-25T07:55:01.393Z,14.50
2022-09-25T07:56:06.237Z,15.20
2022-09-25T07:57:03.078Z,14.80
2022-09-25T07:58:02.403Z,14.80
2022-09-25T07:59:02.715Z,13.40
2022-09-25T08:00:03.038Z,12.90
2022-09-25T08:01:03.429Z,15.80
2022-09-25T08:02:03.773Z,14.10
2022-09-25T08:03:04.184Z,15.50
2022-09-25T08:04:04.444Z,12.90
2022-09-25T08:05:04.742Z,16.30
2022-09-25T08:06:05.074Z,14.00
2022-09-25T08:07:05.401Z,14.80
2022-09-25T08:08:05.727Z,13.30
2022-09-25T08:09:10.327Z,14.30
2022-09-25T08:10:06.408Z,15.60
2022-09-25T08:11:06.739Z,12.60
2022-09-25T08:12:07.059Z,13.70
2022-09-25T08:13:07.396Z,16.10
2022-09-25T08:14:07.754Z,13.10
2022-09-25T08:15:07.989Z,15.60
2022-09-25T08:16:08.337Z,16.20
2022-09-25T08:17:08.677Z,15.80
2022-09-25T08:18:08.988Z,14.30
2022-09-25T08:19:09.323Z,16.30
2022-09-25T08:20:09.627Z,13.90
2022-09-25T08:21:09.948Z,18.60
2022-09-25T08:22:10.273Z,14.60
2022-09-25T08:23:10.582Z,15.30
2022-09-25T08:24:10.994Z,13.80
2022-09-25T08:25:11.248Z,16.40
2022-09-25T08:26:11.556Z,12.80
2022-09-25T08:27:11.906Z,15.20
2022-09-25T08:28:12.212Z,13.20
2022-09-25T08:29:12.525Z,15.10
2022-09-25T08:30:12.863Z,15.60
2022-09-25T08:31:13.282Z,16.60
2022-09-25T08:32:13.485Z,16.70
2022-09-25T08:33:15.746Z,16.50
2022-09-25T08:34:39.604Z,16.10
2022-09-25T08:35:15.484Z,15.40
2022-09-25T08:36:14.797Z,14.50
2022-09-25T08:37:15.123Z,16.00
2022-09-25T08:38:15.445Z,14.40
2022-09-25T08:39:15.754Z,15.20
2022-09-25T08:40:16.115Z,15.00
2022-09-25T08:41:16.462Z,18.40
2022-09-25T08:42:16.748Z,15.20
2022-09-25T08:43:17.071Z,15.60
2022-09-25T08:44:17.397Z,15.40
2022-09-25T08:45:21.712Z,16.10
2022-09-25T08:46:18.084Z,12.90
2022-09-25T08:47:19.776Z,15.50
2022-09-25T08:48:18.670Z,12.60
2022-09-25T08:49:19.004Z,13.90
2022-09-25T08:50:19.327Z,12.80
2022-09-25T08:51:19.633Z,17.80
2022-09-25T08:52:19.955Z,17.10
2022-09-25T08:53:20.283Z,15.30
2022-09-25T08:54:20.587Z,16.10
2022-09-25T08:55:20.903Z,15.50
2022-09-25T08:56:21.212Z,13.50
2022-09-25T08:57:21.561Z,14.40
2022-09-25T08:58:21.872Z,15.80
2022-09-25T08:59:22.185Z,13.90
2022-09-25T09:00:22.493Z,15.90
2022-09-25T09:01:22.826Z,15.60
2022-09-25T09:02:23.229Z,14.50
2022-09-25T09:03:23.463Z,18.20
2022-09-25T09:04:23.784Z,16.10
2022-09-25T09:05:24.093Z,17.90
2022-09-25T09:06:24.402Z,15.10
2022-09-25T09:07:27.571Z,15.70
2022-09-25T09:08:25.013Z,13.60
2022-09-25T09:09:25.319Z,14.80
2022-09-25T09:10:25.627Z,15.60
2022-09-25T09:11:25.939Z,14.20
2022-09-25T09:12:26.252Z,13.30
2022-09-25T09:13:26.562Z,14.00
2022-09-25T09:14:26.869Z,14.40
2022-09-25T09:15:27.276Z,15.40
2022-09-25T09:16:27.501Z,16.60
2022-09-25T09:17:27.820Z,14.60
2022-09-25T09:18:28.116Z,27.30
2022-09-25T09:19:28.423Z,11.90
2022-09-25T09:20:28.711Z,16.40
2022-09-25T09:21:29.003Z,14.30
2022-09-25T09:22:29.302Z,14.30
2022-09-25T09:23:29.593Z,13.10
2022-09-25T09:24:29.883Z,15.20
2022-09-25T09:25:30.153Z,13.00
2022-09-25T09:26:30.470Z,15.90
2022-09-25T09:27:30.769Z,11.30
2022-09-25T09:28:31.041Z,14.40
2022-09-25T09:29:31.320Z,12.90
2022-09-25T09:30:31.595Z,16.00
2022-09-25T09:31:31.866Z,13.10
2022-09-25T09:32:32.162Z,12.80
2022-09-25T09:33:32.439Z,15.70
2022-09-25T09:34:53.682Z,12.70
2022-09-25T09:35:34.345Z,15.70
2022-09-25T09:36:33.362Z,14.70
2022-09-25T09:37:33.653Z,14.50
2022-09-25T09:38:33.935Z,13.50
2022-09-25T09:39:34.218Z,15.20
2022-09-25T09:40:34.525Z,12.80
2022-09-25T09:41:34.794Z,15.40
2022-09-25T09:42:35.081Z,14.50
2022-09-25T09:43:35.361Z,11.60
2022-09-25T09:44:35.651Z,11.70
2022-09-25T09:45:35.941Z,13.20
2022-09-25T09:46:36.250Z,15.50
2022-09-25T09:47:36.541Z,15.00
2022-09-25T09:48:36.813Z,17.10
2022-09-25T09:49:37.082Z,13.40
2022-09-25T09:50:42.464Z,13.90
2022-09-25T09:51:38.706Z,12.50
2022-09-25T09:52:38.001Z,12.10
2022-09-25T09:53:38.273Z,15.20
2022-09-25T09:54:38.555Z,10.40
2022-09-25T09:55:38.832Z,11.90
2022-09-25T09:56:39.101Z,14.20
2022-09-25T09:57:39.412Z,12.10
2022-09-25T09:58:39.680Z,13.00
2022-09-25T09:59:39.955Z,12.30
2022-09-25T10:00:40.237Z,17.70
2022-09-25T10:01:42.123Z,13.00
2022-09-25T10:02:40.816Z,17.00
2022-09-25T10:03:41.007Z,14.00
2022-09-25T10:04:41.257Z,13.80
2022-09-25T10:05:41.521Z,12.20
2022-09-25T10:06:41.733Z,14.10
2022-09-25T10:07:41.976Z,12.50
2022-09-25T10:08:42.194Z,12.20
2022-09-25T10:09:42.442Z,11.70
2022-09-25T10:10:42.673Z,11.60
2022-09-25T10:11:42.909Z,10.80
2022-09-25T10:12:43.177Z,11.20
2022-09-25T10:13:43.407Z,15.40
2022-09-25T10:14:43.644Z,10.20
2022-09-25T10:15:43.930Z,12.30
2022-09-25T10:16:44.149Z,12.70
2022-09-25T10:17:44.374Z,12.90
2022-09-25T10:18:44.600Z,10.10
2022-09-25T10:19:44.825Z,13.80
2022-09-25T10:20:45.073Z,11.80
2022-09-25T10:21:45.275Z,11.60
2022-09-25T10:22:45.526Z,11.20
2022-09-25T10:23:45.738Z,11.00
2022-09-25T10:24:45.933Z,11.30
2022-09-25T10:25:46.134Z,11.20
2022-09-25T10:26:46.353Z,9.70
2022-09-25T10:27:46.565Z,11.50
2022-09-25T10:28:46.773Z,11.20
2022-09-25T10:29:47.002Z,10.60
2022-09-25T10:30:47.260Z,10.60
2022-09-25T10:31:47.347Z,10.20
2022-09-25T10:32:47.563Z,9.40
2022-09-25T10:33:47.765Z,10.20
2022-09-25T10:34:47.948Z,10.40
2022-09-25T10:35:48.139Z,9.40
2022-09-25T10:36:48.322Z,10.50
2022-09-25T10:37:48.521Z,11.60
2022-09-25T10:38:48.697Z,12.90
2022-09-25T10:39:49.030Z,12.00
2022-09-25T10:40:49.082Z,11.40
2022-09-25T10:41:49.265Z,12.20
2022-09-25T10:42:49.458Z,11.40
2022-09-25T10:43:49.679Z,10.10
2022-09-25T10:44:54.143Z,9.80
2022-09-25T10:45:51.048Z,9.00
2022-09-25T10:46:50.223Z,11.40
2022-09-25T10:47:50.407Z,10.70
2022-09-25T10:48:50.585Z,8.90
2022-09-25T10:49:50.753Z,8.40
2022-09-25T10:50:50.953Z,13.10
2022-09-25T10:51:51.113Z,9.30
2022-09-25T10:52:51.301Z,9.10
2022-09-25T10:53:51.476Z,11.10
2022-09-25T10:54:51.656Z,11.10
2022-09-25T10:55:51.855Z,10.80
2022-09-25T10:56:52.035Z,10.30
2022-09-25T10:57:52.237Z,10.60
2022-09-25T10:58:52.434Z,9.70
2022-09-25T10:59:52.640Z,9.50
2022-09-25T11:00:52.865Z,8.90
2022-09-25T11:01:53.180Z,9.00
2022-09-25T11:02:53.356Z,10.00
2022-09-25T11:03:53.441Z,10.30
2022-09-25T11:04:53.661Z,9.10
2022-09-25T11:05:53.888Z,11.00
2022-09-25T11:06:54.092Z,11.00
2022-09-25T11:07:54.320Z,10.00
2022-09-25T11:08:54.529Z,9.90
2022-09-25T11:09:59.785Z,10.30
2022-09-25T11:10:55.913Z,10.20
2022-09-25T11:11:55.101Z,14.90
2022-09-25T11:12:55.329Z,8.40
2022-09-25T11:13:55.549Z,11.50
2022-09-25T11:14:55.760Z,10.90
2022-09-25T11:15:55.981Z,9.80
2022-09-25T11:16:56.292Z,9.40
2022-09-25T11:17:56.441Z,10.80
2022-09-25T11:18:59.071Z,8.80
2022-09-25T11:19:56.833Z,12.10
2022-09-25T11:20:57.062Z,11.70
2022-09-25T11:21:57.295Z,10.40
2022-09-25T11:22:57.555Z,9.70
2022-09-25T11:23:57.802Z,9.80
2022-09-25T11:25:01.344Z,12.10
2022-09-25T11:25:58.345Z,10.10
2022-09-25T11:26:58.598Z,13.30
2022-09-25T11:27:58.852Z,10.60
2022-09-25T11:28:59.112Z,9.10
2022-09-25T11:29:59.369Z,11.50
2022-09-25T11:30:59.645Z,8.70
2022-09-25T11:31:59.905Z,9.50
2022-09-25T11:33:00.247Z,10.10
2022-09-25T11:34:00.393Z,8.70
2022-09-25T11:35:00.660Z,9.00
2022-09-25T11:36:00.921Z,10.60
2022-09-25T11:37:01.185Z,8.00
2022-09-25T11:38:02.490Z,11.60
2022-09-25T11:39:01.717Z,11.40
2022-09-25T11:40:01.998Z,9.60
2022-09-25T11:41:02.264Z,10.20
2022-09-25T11:42:02.537Z,9.00
2022-09-25T11:43:02.831Z,8.40
2022-09-25T11:44:03.095Z,10.90
2022-09-25T11:45:03.405Z,10.00
2022-09-25T11:46:03.670Z,8.20
2022-09-25T11:47:03.918Z,9.10
2022-09-25T11:48:04.207Z,9.10
2022-09-25T11:49:11.978Z,8.70
2022-09-25T11:50:05.712Z,8.70
2022-09-25T11:51:04.972Z,10.30
2022-09-25T11:52:05.262Z,7.50
2022-09-25T11:53:05.547Z,9.10
2022-09-25T11:54:32.641Z,8.80
2022-09-25T11:55:07.137Z,9.40
2022-09-25T11:56:06.402Z,8.70
2022-09-25T11:57:06.659Z,8.30
2022-09-25T11:58:06.933Z,10.50
2022-09-25T11:59:07.185Z,10.70
2022-09-25T12:00:07.440Z,9.20
2022-09-25T12:01:07.754Z,9.20
2022-09-25T12:02:08.001Z,11.80
2022-09-25T12:03:08.302Z,7.70
2022-09-25T12:04:08.553Z,8.30
2022-09-25T12:05:08.771Z,7.60
2022-09-25T12:06:09.003Z,7.70
2022-09-25T12:07:09.214Z,8.80
2022-09-25T12:08:09.443Z,7.80
2022-09-25T12:09:09.698Z,8.80
2022-09-25T12:10:09.925Z,6.00
2022-09-25T12:11:10.118Z,6.10
2022-09-25T12:12:10.321Z,8.30
2022-09-25T12:13:10.542Z,6.90
2022-09-25T12:14:10.737Z,5.50
2022-09-25T12:15:10.934Z,6.40
2022-09-25T12:16:11.166Z,6.90
2022-09-25T12:17:11.365Z,7.60
2022-09-25T12:18:11.586Z,6.10
2022-09-25T12:19:11.783Z,6.10
2022-09-25T12:20:11.975Z,6.80
2022-09-25T12:21:12.212Z,5.20
2022-09-25T12:22:12.396Z,6.70
2022-09-25T12:23:12.615Z,9.20
2022-09-25T12:24:12.858Z,5.70
2022-09-25T12:25:12.963Z,7.00
2022-09-25T12:26:13.156Z,5.60
2022-09-25T12:27:13.345Z,8.00
2022-09-25T12:28:13.546Z,5.90
2022-09-25T12:29:13.736Z,6.20
2022-09-25T12:30:13.922Z,18.40
2022-09-25T12:31:14.139Z,7.20
2022-09-25T12:32:14.294Z,6.60
2022-09-25T12:33:14.547Z,7.90
2022-09-25T12:34:14.627Z,8.00
2022-09-25T12:35:14.808Z,7.60
2022-09-25T12:36:14.988Z,7.00
2022-09-25T12:37:15.186Z,6.80
2022-09-25T12:38:15.386Z,6.70
2022-09-25T12:39:15.578Z,8.20
2022-09-25T12:40:15.793Z,6.20
2022-09-25T12:41:15.966Z,9.00
2022-09-25T12:42:16.196Z,7.00
2022-09-25T12:43:16.376Z,8.00
2022-09-25T12:44:16.588Z,6.20
2022-09-25T12:45:16.800Z,6.10
2022-09-25T12:46:17.061Z,6.70
2022-09-25T12:47:17.178Z,9.20
2022-09-25T12:48:17.406Z,6.70
2022-09-25T12:49:17.632Z,7.70
2022-09-25T12:50:17.855Z,6.80
2022-09-25T12:51:18.068Z,10.30
2022-09-25T12:52:18.283Z,16.10
2022-09-25T12:53:18.534Z,8.80
2022-09-25T12:54:18.749Z,16.80
2022-09-25T12:55:19.011Z,10.30
2022-09-25T12:56:19.219Z,10.50
2022-09-25T12:57:19.457Z,11.30
2022-09-25T12:58:19.710Z,9.50
2022-09-25T12:59:19.948Z,7.70
2022-09-25T13:00:20.264Z,9.80
2022-09-25T13:01:20.535Z,6.40
2022-09-25T13:02:20.717Z,7.80
2022-09-25T13:03:21.017Z,7.20
2022-09-25T13:04:21.289Z,8.70
2022-09-25T13:05:22.246Z,10.40